createdAt,value
2018-05-27T00:00:46.840Z,18.90
2018-05-27T00:03:16.644Z,18.90
2018-05-27T00:05:46.260Z,18.80
2018-05-27T00:08:16.156Z,18.70
2018-05-27T00:10:45.415Z,18.70
2018-05-27T00:13:13.033Z,18.70
2018-05-27T00:15:41.889Z,18.60
2018-05-27T00:18:12.170Z,18.60
2018-05-27T00:20:41.085Z,18.60
2018-05-27T00:23:09.716Z,18.60
2018-05-27T00:25:39.768Z,18.60
2018-05-27T00:28:12.533Z,18.60
2018-05-27T00:30:42.806Z,18.50
2018-05-27T00:33:12.777Z,18.50
2018-05-27T00:35:45.946Z,18.50
2018-05-27T00:38:15.266Z,18.40
2018-05-27T00:40:47.662Z,18.40
2018-05-27T00:43:20.218Z,18.30
2018-05-27T00:45:49.298Z,18.30
2018-05-27T00:48:19.604Z,18.20
2018-05-27T00:50:57.545Z,18.20
2018-05-27T00:53:44.434Z,18.20
2018-05-27T00:56:17.956Z,18.10
2018-05-27T00:59:07.894Z,18.10
2018-05-27T01:01:46.399Z,18.00
2018-05-27T01:04:19.888Z,18.00
2018-05-27T01:06:52.406Z,18.00
2018-05-27T01:09:22.409Z,18.00
2018-05-27T01:11:55.295Z,18.00
2018-05-27T01:14:24.349Z,18.00
2018-05-27T01:16:51.929Z,18.00
2018-05-27T01:19:21.560Z,18.00
2018-05-27T01:21:50.107Z,18.00
2018-05-27T01:24:17.912Z,18.00
2018-05-27T01:26:45.857Z,18.00
2018-05-27T01:29:13.550Z,18.00
2018-05-27T01:31:43.556Z,18.00
2018-05-27T01:34:11.669Z,18.00
2018-05-27T01:36:39.888Z,18.00
2018-05-27T01:39:07.433Z,18.00
2018-05-27T01:41:35.092Z,18.00
2018-05-27T01:44:03.953Z,18.00
2018-05-27T01:46:33.657Z,18.00
2018-05-27T01:49:01.865Z,18.10
2018-05-27T01:51:31.020Z,18.10
2018-05-27T01:53:59.944Z,18.20
2018-05-27T01:56:28.287Z,18.20
2018-05-27T01:58:56.778Z,18.20
2018-05-27T02:01:25.186Z,18.20
2018-05-27T02:03:53.412Z,18.20
2018-05-27T02:06:21.444Z,18.20
2018-05-27T02:08:50.491Z,18.20
2018-05-27T02:11:19.925Z,18.10
2018-05-27T02:13:49.192Z,18.10
2018-05-27T02:16:17.173Z,18.10
2018-05-27T02:18:45.789Z,18.10
2018-05-27T02:21:14.240Z,18.10
2018-05-27T02:23:44.021Z,18.20
2018-05-27T02:26:12.035Z,18.20
2018-05-27T02:28:40.361Z,18.30
2018-05-27T02:31:09.178Z,18.30
2018-05-27T02:33:38.412Z,18.40
2018-05-27T02:36:07.450Z,18.40
2018-05-27T02:38:35.264Z,18.40
2018-05-27T02:41:02.856Z,18.40
2018-05-27T02:43:30.457Z,18.40
2018-05-27T02:45:58.258Z,18.50
2018-05-27T02:48:26.500Z,18.50
2018-05-27T02:50:55.407Z,18.50
2018-05-27T02:53:23.741Z,18.50
2018-05-27T02:55:53.176Z,18.50
2018-05-27T02:58:21.201Z,18.40
2018-05-27T03:00:50.473Z,18.30
2018-05-27T03:03:19.869Z,18.30
2018-05-27T03:05:47.428Z,18.30
2018-05-27T03:08:17.104Z,18.30
2018-05-27T03:10:45.927Z,18.30
2018-05-27T03:13:14.612Z,18.30
2018-05-27T03:15:42.871Z,18.30
2018-05-27T03:18:11.353Z,18.40
2018-05-27T03:20:40.057Z,18.40
2018-05-27T03:23:07.820Z,18.40
2018-05-27T03:25:36.813Z,18.50
2018-05-27T03:28:04.409Z,18.50
2018-05-27T03:30:32.011Z,18.50
2018-05-27T03:33:00.876Z,18.50
2018-05-27T03:35:28.436Z,18.50
2018-05-27T03:37:56.003Z,18.50
2018-05-27T03:40:24.807Z,18.50
2018-05-27T03:42:52.759Z,18.50
2018-05-27T03:45:21.868Z,18.50
2018-05-27T03:47:50.451Z,18.50
2018-05-27T03:50:18.439Z,18.50
2018-05-27T03:52:46.070Z,18.50
2018-05-27T03:55:15.415Z,18.40
2018-05-27T03:57:43.005Z,18.40
2018-05-27T04:00:10.608Z,18.30
2018-05-27T04:02:38.568Z,18.30
2018-05-27T04:05:18.384Z,18.30
2018-05-27T04:07:57.807Z,18.30
2018-05-27T04:10:28.296Z,18.30
2018-05-27T04:12:59.131Z,18.40
2018-05-27T04:15:27.659Z,18.50
2018-05-27T04:17:57.356Z,18.50
2018-05-27T04:20:30.265Z,18.60
2018-05-27T04:22:59.667Z,18.70
2018-05-27T04:25:29.107Z,18.70
2018-05-27T04:27:57.827Z,18.70
2018-05-27T04:30:27.907Z,18.70
2018-05-27T04:32:58.037Z,18.70
2018-05-27T04:35:27.327Z,18.70
2018-05-27T04:37:56.023Z,18.60
2018-05-27T04:40:24.270Z,18.60
2018-05-27T04:42:55.538Z,18.50
2018-05-27T04:45:24.140Z,18.50
2018-05-27T04:47:56.164Z,18.50
2018-05-27T04:50:27.437Z,18.50
2018-05-27T04:52:55.615Z,18.60
2018-05-27T04:55:25.500Z,18.70
2018-05-27T04:57:55.217Z,18.70
2018-05-27T05:00:25.031Z,19.00
2018-05-27T05:02:53.451Z,19.00
2018-05-27T05:05:21.026Z,19.00
2018-05-27T05:07:49.507Z,19.10
2018-05-27T05:10:17.295Z,19.10
2018-05-27T05:12:44.936Z,19.20
2018-05-27T05:15:12.633Z,19.20
2018-05-27T05:17:40.420Z,19.30
2018-05-27T05:20:08.133Z,19.30
2018-05-27T05:22:35.801Z,19.30
2018-05-27T05:25:03.656Z,19.30
2018-05-27T05:27:32.680Z,19.20
2018-05-27T05:30:01.308Z,19.00
2018-05-27T05:32:30.745Z,19.00
2018-05-27T05:34:58.527Z,19.00
2018-05-27T05:37:29.668Z,19.00
2018-05-27T05:40:01.500Z,19.00
2018-05-27T05:42:30.888Z,19.00
2018-05-27T05:44:58.944Z,19.10
2018-05-27T05:47:28.148Z,19.20
2018-05-27T05:49:55.769Z,19.30
2018-05-27T05:52:23.293Z,19.40
2018-05-27T05:54:53.041Z,19.50
2018-05-27T05:57:21.376Z,19.50
2018-05-27T05:59:51.666Z,19.50
2018-05-27T06:02:21.257Z,19.70
2018-05-27T06:04:49.277Z,19.80
2018-05-27T06:07:17.782Z,19.80
2018-05-27T06:09:47.071Z,19.90
2018-05-27T06:12:16.462Z,20.00
2018-05-27T06:14:45.175Z,20.00
2018-05-27T06:17:13.382Z,20.00
2018-05-27T06:19:41.724Z,20.00
2018-05-27T06:22:09.598Z,20.00
2018-05-27T06:24:40.375Z,20.10
2018-05-27T06:27:09.272Z,20.40
2018-05-27T06:29:37.108Z,20.40
2018-05-27T06:32:05.131Z,20.70
2018-05-27T06:34:37.703Z,20.70
2018-05-27T06:37:06.297Z,20.80
2018-05-27T06:39:34.729Z,20.80
2018-05-27T06:42:03.202Z,20.80
2018-05-27T06:44:31.762Z,20.80
2018-05-27T06:47:00.664Z,20.90
2018-05-27T06:49:28.701Z,20.90
2018-05-27T06:51:57.107Z,21.00
2018-05-27T06:54:25.652Z,21.10
2018-05-27T06:56:55.048Z,21.10
2018-05-27T06:59:25.892Z,21.20
2018-05-27T07:01:54.105Z,21.30
2018-05-27T07:04:22.543Z,21.50
2018-05-27T07:06:51.906Z,21.80
2018-05-27T07:09:20.093Z,21.80
2018-05-27T07:11:49.111Z,21.90
2018-05-27T07:14:22.354Z,22.00
2018-05-27T07:16:51.121Z,22.00
2018-05-27T07:19:19.890Z,22.20
2018-05-27T07:21:48.458Z,22.20
2018-05-27T07:24:17.730Z,22.20
2018-05-27T07:26:46.233Z,22.30
2018-05-27T07:29:14.888Z,22.50
2018-05-27T07:31:43.450Z,22.50
2018-05-27T07:34:12.401Z,22.60
2018-05-27T07:36:40.942Z,22.60
2018-05-27T07:39:09.544Z,22.70
2018-05-27T07:41:38.256Z,22.80
2018-05-27T07:44:06.368Z,22.80
2018-05-27T07:46:34.737Z,22.90
2018-05-27T07:49:03.160Z,23.00
2018-05-27T07:51:31.594Z,23.10
2018-05-27T07:54:00.136Z,23.40
2018-05-27T07:56:28.473Z,23.60
2018-05-27T07:58:57.286Z,24.10
2018-05-27T08:01:25.619Z,24.00
2018-05-27T08:03:54.819Z,24.40
2018-05-27T08:06:23.954Z,24.60
2018-05-27T08:08:52.509Z,24.60
2018-05-27T08:11:23.913Z,24.90
2018-05-27T08:13:52.782Z,25.00
2018-05-27T08:16:24.628Z,25.00
2018-05-27T10:23:09.367Z,31.20
2018-05-27T10:25:38.252Z,31.10
2018-05-27T10:28:11.779Z,31.20
2018-05-27T10:40:10.720Z,31.40
2018-05-27T10:42:42.144Z,31.40
2018-05-27T10:45:15.778Z,31.50
2018-05-27T10:53:39.481Z,32.10
2018-05-27T10:56:09.007Z,32.10
2018-05-27T11:12:51.938Z,32.80
2018-05-27T11:15:21.424Z,32.80
2018-05-27T11:17:51.414Z,32.90
2018-05-27T11:23:02.761Z,33.10
2018-05-27T11:25:30.470Z,32.90
2018-05-27T11:27:58.535Z,32.90
2018-05-27T11:30:26.213Z,32.80
2018-05-27T11:32:54.413Z,32.70
2018-05-27T11:35:24.103Z,32.60
2018-05-27T11:38:01.433Z,32.70
2018-05-27T11:40:29.578Z,32.80
2018-05-27T11:42:59.675Z,32.80
2018-05-27T11:45:29.475Z,32.70
2018-05-27T11:47:58.470Z,32.70
2018-05-27T11:53:14.840Z,32.50
2018-05-27T11:55:48.071Z,32.90
2018-05-27T11:58:22.738Z,33.60
2018-05-27T12:00:56.093Z,33.70
2018-05-27T12:03:25.124Z,33.70
2018-05-27T12:05:57.466Z,34.80
2018-05-27T12:08:31.881Z,38.40
2018-05-27T12:11:01.557Z,38.40
2018-05-27T12:13:30.588Z,39.80
2018-05-27T12:16:09.643Z,38.70
2018-05-27T12:18:39.809Z,38.70
2018-05-27T12:24:10.057Z,36.40
2018-05-27T12:26:40.388Z,35.40
2018-05-27T14:17:23.162Z,36.10
2018-05-27T14:20:08.173Z,36.10
2018-05-27T14:22:48.921Z,35.60
2018-05-27T14:25:20.494Z,35.40
2018-05-27T14:27:48.106Z,35.20
2018-05-27T14:30:28.948Z,34.80
2018-05-27T14:33:00.737Z,33.60
2018-05-27T14:35:32.489Z,33.50
2018-05-27T14:38:05.814Z,33.20
2018-05-27T14:40:33.777Z,32.70
2018-05-27T14:43:02.769Z,32.60
2018-05-27T14:45:30.443Z,32.60
2018-05-27T14:47:58.433Z,32.60
2018-05-27T14:50:26.001Z,32.60
2018-05-27T14:52:53.545Z,32.70
2018-05-27T14:55:21.716Z,32.70
2018-05-27T14:57:51.050Z,32.70
2018-05-27T15:00:18.669Z,32.60
2018-05-27T15:02:46.483Z,32.60
2018-05-27T15:05:15.638Z,32.60
2018-05-27T15:07:44.009Z,32.60
2018-05-27T15:10:11.586Z,32.60
2018-05-27T15:12:39.921Z,32.50
2018-05-27T15:15:07.469Z,32.50
2018-05-27T15:17:35.050Z,32.40
2018-05-27T15:20:03.056Z,32.30
2018-05-27T15:22:30.648Z,32.30
2018-05-27T15:24:59.008Z,32.10
2018-05-27T15:27:27.945Z,32.00
2018-05-27T15:29:56.091Z,31.60
2018-05-27T15:32:23.887Z,31.60
2018-05-27T15:34:52.134Z,31.20
2018-05-27T15:37:20.415Z,31.20
2018-05-27T15:39:47.961Z,31.00
2018-05-27T15:42:15.782Z,30.80
2018-05-27T15:44:43.327Z,30.70
2018-05-27T15:47:11.324Z,30.60
2018-05-27T15:49:38.854Z,30.40
2018-05-27T15:52:07.127Z,30.30
2018-05-27T15:54:35.401Z,30.00
2018-05-27T15:57:05.085Z,29.90
2018-05-27T15:59:33.284Z,29.90
2018-05-27T16:02:02.240Z,29.70
2018-05-27T16:04:29.799Z,29.70
2018-05-27T16:06:57.382Z,29.60
2018-05-27T16:09:24.927Z,29.50
2018-05-27T16:11:53.079Z,29.40
2018-05-27T16:14:20.616Z,29.30
2018-05-27T16:16:49.075Z,29.20
2018-05-27T16:19:16.695Z,29.20
2018-05-27T16:21:44.921Z,29.00
2018-05-27T16:24:15.735Z,28.90
2018-05-27T16:26:43.271Z,28.90
2018-05-27T16:29:10.828Z,28.80
2018-05-27T16:31:38.650Z,28.70
2018-05-27T16:34:07.144Z,28.60
2018-05-27T16:36:36.699Z,28.50
2018-05-27T16:39:10.311Z,28.40
2018-05-27T16:41:43.748Z,28.40
2018-05-27T16:44:11.575Z,28.30
2018-05-27T16:46:40.422Z,28.30
2018-05-27T16:49:08.310Z,28.30
2018-05-27T16:51:35.882Z,28.30
2018-05-27T16:54:05.133Z,28.30
2018-05-27T16:56:34.205Z,28.30
2018-05-27T16:59:03.197Z,28.30
2018-05-27T17:01:32.859Z,28.30
2018-05-27T17:04:02.718Z,28.30
2018-05-27T17:06:31.441Z,28.10
2018-05-27T17:09:00.579Z,28.10
2018-05-27T17:11:30.382Z,28.00
2018-05-27T17:14:00.990Z,28.00
2018-05-27T17:16:31.693Z,27.90
2018-05-27T17:19:00.193Z,27.90
2018-05-27T17:21:29.605Z,27.80
2018-05-27T17:23:57.193Z,27.80
2018-05-27T17:26:25.728Z,27.60
2018-05-27T17:28:53.465Z,27.60
2018-05-27T17:31:22.334Z,27.40
2018-05-27T17:33:52.418Z,27.40
2018-05-27T17:36:23.460Z,27.40
2018-05-27T17:38:52.808Z,27.30
2018-05-27T17:41:21.291Z,27.30
2018-05-27T17:43:49.288Z,27.20
2018-05-27T17:46:16.867Z,27.20
2018-05-27T17:48:44.428Z,27.20
2018-05-27T17:51:12.034Z,27.10
2018-05-27T17:53:40.161Z,26.90
2018-05-27T17:56:08.144Z,26.90
2018-05-27T17:58:36.695Z,26.80
2018-05-27T18:01:04.313Z,26.80
2018-05-27T18:03:31.876Z,26.70
2018-05-27T18:05:59.908Z,26.50
2018-05-27T18:08:28.824Z,26.50
2018-05-27T18:10:56.675Z,26.40
2018-05-27T18:13:25.079Z,26.30
2018-05-27T18:15:53.338Z,26.20
2018-05-27T18:18:21.145Z,26.10
2018-05-27T18:20:49.326Z,25.90
2018-05-27T18:23:16.905Z,25.90
2018-05-27T18:25:44.478Z,25.80
2018-05-27T18:28:12.324Z,25.70
2018-05-27T18:30:40.712Z,25.60
2018-05-27T18:33:08.305Z,25.60
2018-05-27T18:35:37.760Z,25.50
2018-05-27T18:38:07.577Z,25.50
2018-05-27T18:40:38.090Z,25.40
2018-05-27T18:43:07.221Z,25.40
2018-05-27T18:45:35.023Z,25.40
2018-05-27T18:48:04.181Z,25.30
2018-05-27T18:50:32.199Z,25.30
2018-05-27T18:52:59.753Z,25.20
2018-05-27T18:55:29.241Z,25.10
2018-05-27T18:58:00.033Z,25.10
2018-05-27T19:00:29.170Z,25.00
2018-05-27T19:02:57.576Z,24.90
2018-05-27T19:05:27.779Z,24.70
2018-05-27T19:07:57.515Z,24.70
2018-05-27T19:10:26.299Z,24.60
2018-05-27T19:12:58.830Z,24.50
2018-05-27T19:15:27.436Z,24.50
2018-05-27T19:17:55.694Z,24.50
2018-05-27T19:20:24.856Z,24.50
2018-05-27T19:22:52.460Z,24.50
2018-05-27T19:25:20.011Z,24.50
2018-05-27T19:27:50.601Z,24.50
2018-05-27T19:30:18.530Z,24.40
2018-05-27T19:32:46.303Z,24.40
2018-05-27T19:35:13.889Z,24.30
2018-05-27T19:37:41.855Z,24.20
2018-05-27T19:40:09.816Z,24.20
2018-05-27T19:42:37.806Z,24.10
2018-05-27T19:45:05.393Z,24.10
2018-05-27T19:47:32.988Z,24.10
2018-05-27T19:50:00.552Z,24.00
2018-05-27T19:52:28.093Z,24.00
2018-05-27T19:54:55.665Z,23.90
2018-05-27T19:57:23.225Z,23.90
2018-05-27T19:59:50.812Z,23.80
2018-05-27T20:02:18.348Z,23.70
2018-05-27T20:04:45.912Z,23.60
2018-05-27T20:07:13.504Z,23.60
2018-05-27T20:09:41.464Z,23.30
2018-05-27T20:12:09.420Z,23.20
2018-05-27T20:14:37.492Z,23.10
2018-05-27T20:17:05.721Z,23.00
2018-05-27T20:19:33.280Z,23.00
2018-05-27T20:22:01.204Z,22.90
2018-05-27T20:24:29.141Z,22.70
2018-05-27T20:26:56.737Z,22.70
2018-05-27T20:29:25.314Z,22.70
2018-05-27T20:31:53.309Z,22.60
2018-05-27T20:34:20.878Z,22.40
2018-05-27T20:36:48.483Z,22.30
2018-05-27T20:39:16.114Z,22.20
2018-05-27T20:41:43.651Z,22.20
2018-05-27T20:44:11.275Z,22.10
2018-05-27T20:46:40.120Z,21.90
2018-05-27T20:49:07.765Z,21.90
2018-05-27T20:51:35.355Z,21.80
2018-05-27T20:54:02.958Z,21.70
2018-05-27T20:56:31.109Z,21.50
2018-05-27T20:58:58.735Z,21.50
2018-05-27T21:01:26.311Z,21.40
2018-05-27T21:03:53.882Z,21.30
2018-05-27T21:06:21.469Z,21.20
2018-05-27T21:08:49.678Z,20.90
2018-05-27T21:11:18.077Z,20.90
2018-05-27T21:13:45.661Z,20.80
2018-05-27T21:16:13.612Z,20.80
2018-05-27T21:18:42.947Z,20.80
2018-05-27T21:21:10.559Z,20.80
2018-05-27T21:23:38.371Z,20.80
2018-05-27T21:26:06.364Z,20.50
2018-05-27T21:28:33.928Z,20.50
2018-05-27T21:31:01.492Z,20.40
2018-05-27T21:33:29.045Z,20.30
2018-05-27T21:35:56.645Z,20.20
2018-05-27T21:38:24.224Z,20.20
2018-05-27T21:40:53.032Z,20.10
2018-05-27T21:43:21.920Z,20.10
2018-05-27T21:45:51.008Z,20.10
2018-05-27T21:48:20.544Z,20.00
2018-05-27T21:50:48.351Z,20.00
2018-05-27T21:53:16.967Z,20.00
2018-05-27T21:55:44.498Z,20.10
2018-05-27T21:58:12.073Z,20.20
2018-05-27T22:00:41.226Z,20.20
2018-05-27T22:03:08.821Z,20.20
2018-05-27T22:05:36.633Z,20.20
2018-05-27T22:08:04.210Z,20.20
2018-05-27T22:10:31.995Z,20.20
2018-05-27T22:12:59.617Z,20.30
2018-05-27T22:15:27.564Z,20.30
2018-05-27T22:26:51.109Z,20.40
2018-05-27T22:29:21.080Z,20.30
2018-05-27T22:40:37.199Z,20.00
2018-05-27T22:43:06.646Z,19.90
2018-05-27T22:51:36.219Z,19.60
2018-05-27T22:54:14.548Z,19.40
2018-05-27T23:00:26.705Z,19.20
2018-05-27T23:03:14.047Z,19.20
2018-05-27T23:56:15.733Z,19.40
